Aviation Digital Data Service (ADDS)

Output produced by METARs form (0339 UTC 26 April 2019)
found at http://www.aviationweather.gov/metar/data/
 
METAR text: NFNA 260300Z 14008KT 9999 -DZ SCT018TCU BKN045 28/25 Q1006
Conditions at: NFNA (NAUSORI FIJI , FJ) observed 0300 UTC 26 April 2019
Temperature: 28.0°C (82°F)
Dewpoint: 25.0°C (77°F) [RH = 84%]
Pressure (altimeter): 29.70 inches Hg (1006.0 mb)
Winds: from the SE (140 degrees) at 9 MPH (8 knots; 4.1 m/s)
Visibility: 6 or more miles (10+ km)
Ceiling: 4500 feet AGL
Clouds: scattered clouds at 1800 feet AGL
broken clouds at 4500 feet AGL
Weather: -DZ  (light drizzle)

METAR text: NFNA 260200Z 13007KT 9999 SCT018 BKN045 27/26 Q1007
Conditions at: NFNA (NAUSORI FIJI , FJ) observed 0200 UTC 26 April 2019
Temperature: 27.0°C (81°F)
Dewpoint: 26.0°C (79°F) [RH = 94%]
Pressure (altimeter): 29.73 inches Hg (1007.0 mb)
Winds: from the SE (130 degrees) at 8 MPH (7 knots; 3.6 m/s)
Visibility: 6 or more miles (10+ km)
Ceiling: 4500 feet AGL
Clouds: scattered clouds at 1800 feet AGL
broken clouds at 4500 feet AGL
Weather: no significant weather observed at this time

METAR text: NFNA 260100Z 11010KT 9999 BKN018 BKN045 28/26 Q1007
Conditions at: NFNA (NAUSORI FIJI , FJ) observed 0100 UTC 26 April 2019
Temperature: 28.0°C (82°F)
Dewpoint: 26.0°C (79°F) [RH = 89%]
Pressure (altimeter): 29.73 inches Hg (1007.0 mb)
Winds: from the ESE (110 degrees) at 12 MPH (10 knots; 5.1 m/s)
Visibility: 6 or more miles (10+ km)
Ceiling: 1800 feet AGL
Clouds: broken clouds at 1800 feet AGL
broken clouds at 4500 feet AGL
Weather: no significant weather observed at this time

METAR text: NFNA 260000Z 13007KT 9999 BKN018 BKN045 28/26 Q1008 RESHRA
Conditions at: NFNA (NAUSORI FIJI , FJ) observed 0000 UTC 26 April 2019
Temperature: 28.0°C (82°F)
Dewpoint: 26.0°C (79°F) [RH = 89%]
Pressure (altimeter): 29.76 inches Hg (1008.0 mb)
Winds: from the SE (130 degrees) at 8 MPH (7 knots; 3.6 m/s)
Visibility: 6 or more miles (10+ km)
Ceiling: 1800 feet AGL
Clouds: broken clouds at 1800 feet AGL
broken clouds at 4500 feet AGL
Weather: no significant weather observed at this time

METAR text: NFNA 252300Z 12008KT 9999 -SHRA BKN018 BKN045 29/26 Q1009
Conditions at: NFNA (NAUSORI FIJI , FJ) observed 2300 UTC 25 April 2019
Temperature: 29.0°C (84°F)
Dewpoint: 26.0°C (79°F) [RH = 84%]
Pressure (altimeter): 29.79 inches Hg (1009.0 mb)
Winds: from the ESE (120 degrees) at 9 MPH (8 knots; 4.1 m/s)
Visibility: 6 or more miles (10+ km)
Ceiling: 1800 feet AGL
Clouds: broken clouds at 1800 feet AGL
broken clouds at 4500 feet AGL
Weather: -SHRA  (light rain showers)

METAR text: NFNA 252200Z 15007KT 9999 SCT020 BKN045 28/26 Q1009
Conditions at: NFNA (NAUSORI FIJI , FJ) observed 2200 UTC 25 April 2019
Temperature: 28.0°C (82°F)
Dewpoint: 26.0°C (79°F) [RH = 89%]
Pressure (altimeter): 29.79 inches Hg (1009.0 mb)
Winds: from the SSE (150 degrees) at 8 MPH (7 knots; 3.6 m/s)
Visibility: 6 or more miles (10+ km)
Ceiling: 4500 feet AGL
Clouds: scattered clouds at 2000 feet AGL
broken clouds at 4500 feet AGL
Weather: no significant weather observed at this time

METAR text: NFNA 252100Z 15007KT 9999 SCT020 BKN045 28/26 Q1010 RESHRA
Conditions at: NFNA (NAUSORI FIJI , FJ) observed 2100 UTC 25 April 2019
Temperature: 28.0°C (82°F)
Dewpoint: 26.0°C (79°F) [RH = 89%]
Pressure (altimeter): 29.82 inches Hg (1010.0 mb)
Winds: from the SSE (150 degrees) at 8 MPH (7 knots; 3.6 m/s)
Visibility: 6 or more miles (10+ km)
Ceiling: 4500 feet AGL
Clouds: scattered clouds at 2000 feet AGL
broken clouds at 4500 feet AGL
Weather: no significant weather observed at this time

METAR text: NFNA 252000Z 16004KT 9999 SCT016 SCT045 BKN110 27/26 Q1009
Conditions at: NFNA (NAUSORI FIJI , FJ) observed 2000 UTC 25 April 2019
Temperature: 27.0°C (81°F)
Dewpoint: 26.0°C (79°F) [RH = 94%]
Pressure (altimeter): 29.79 inches Hg (1009.0 mb)
Winds: from the SSE (160 degrees) at 5 MPH (4 knots; 2.1 m/s)
Visibility: 6 or more miles (10+ km)
Ceiling: 11000 feet AGL
Clouds: scattered clouds at 1600 feet AGL
scattered clouds at 4500 feet AGL
broken clouds at 11000 feet AGL
Weather: no significant weather observed at this time

METAR text: NFNA 251900Z 15005KT 9999 -SHRA SCT016 BKN045 BKN110 26/25 Q1009
Conditions at: NFNA (NAUSORI FIJI , FJ) observed 1900 UTC 25 April 2019
Temperature: 26.0°C (79°F)
Dewpoint: 25.0°C (77°F) [RH = 94%]
Pressure (altimeter): 29.79 inches Hg (1009.0 mb)
Winds: from the SSE (150 degrees) at 6 MPH (5 knots; 2.6 m/s)
Visibility: 6 or more miles (10+ km)
Ceiling: 4500 feet AGL
Clouds: scattered clouds at 1600 feet AGL
broken clouds at 4500 feet AGL
broken clouds at 11000 feet AGL
Weather: -SHRA  (light rain showers)

METAR text: NFNA 251800Z 16004KT 9999 -SHRA SCT016 BKN045 BKN110 26/25 Q1009
Conditions at: NFNA (NAUSORI FIJI , FJ) observed 1800 UTC 25 April 2019
Temperature: 26.0°C (79°F)
Dewpoint: 25.0°C (77°F) [RH = 94%]
Pressure (altimeter): 29.79 inches Hg (1009.0 mb)
Winds: from the SSE (160 degrees) at 5 MPH (4 knots; 2.1 m/s)
Visibility: 6 or more miles (10+ km)
Ceiling: 4500 feet AGL
Clouds: scattered clouds at 1600 feet AGL
broken clouds at 4500 feet AGL
broken clouds at 11000 feet AGL
Weather: -SHRA  (light rain showers)

METAR text: NFNA 251700Z 14004KT 9999 -SHRA SCT016 SCT045 BKN110 26/25 Q1008
Conditions at: NFNA (NAUSORI FIJI , FJ) observed 1700 UTC 25 April 2019
Temperature: 26.0°C (79°F)
Dewpoint: 25.0°C (77°F) [RH = 94%]
Pressure (altimeter): 29.76 inches Hg (1008.0 mb)
Winds: from the SE (140 degrees) at 5 MPH (4 knots; 2.1 m/s)
Visibility: 6 or more miles (10+ km)
Ceiling: 11000 feet AGL
Clouds: scattered clouds at 1600 feet AGL
scattered clouds at 4500 feet AGL
broken clouds at 11000 feet AGL
Weather: -SHRA  (light rain showers)

METAR text: NFNA 251600Z 19002KT 9999 SCT017 SCT048 BKN110 26/25 Q1008
Conditions at: NFNA (NAUSORI FIJI , FJ) observed 1600 UTC 25 April 2019
Temperature: 26.0°C (79°F)
Dewpoint: 25.0°C (77°F) [RH = 94%]
Pressure (altimeter): 29.76 inches Hg (1008.0 mb)
Winds: from the S (190 degrees) at 2 MPH (2 knots; 1.0 m/s)
Visibility: 6 or more miles (10+ km)
Ceiling: 11000 feet AGL
Clouds: scattered clouds at 1700 feet AGL
scattered clouds at 4800 feet AGL
broken clouds at 11000 feet AGL
Weather: no significant weather observed at this time

METAR text: NFNA 251500Z 00000KT 9999 SCT017 SCT048 BKN110 26/25 Q1009
Conditions at: NFNA (NAUSORI FIJI , FJ) observed 1500 UTC 25 April 2019
Temperature: 26.0°C (79°F)
Dewpoint: 25.0°C (77°F) [RH = 94%]
Pressure (altimeter): 29.79 inches Hg (1009.0 mb)
Winds: calm
Visibility: 6 or more miles (10+ km)
Ceiling: 11000 feet AGL
Clouds: scattered clouds at 1700 feet AGL
scattered clouds at 4800 feet AGL
broken clouds at 11000 feet AGL
Weather: no significant weather observed at this time

METAR text: NFNA 251400Z 16003KT 9999 SCT017 SCT048 BKN110 26/25 Q1009
Conditions at: NFNA (NAUSORI FIJI , FJ) observed 1400 UTC 25 April 2019
Temperature: 26.0°C (79°F)
Dewpoint: 25.0°C (77°F) [RH = 94%]
Pressure (altimeter): 29.79 inches Hg (1009.0 mb)
Winds: from the SSE (160 degrees) at 3 MPH (3 knots; 1.5 m/s)
Visibility: 6 or more miles (10+ km)
Ceiling: 11000 feet AGL
Clouds: scattered clouds at 1700 feet AGL
scattered clouds at 4800 feet AGL
broken clouds at 11000 feet AGL
Weather: no significant weather observed at this time

METAR text: NFNA 251300Z 12004KT 9999 SCT017 BKN048 BKN110 26/25 Q1009
Conditions at: NFNA (NAUSORI FIJI , FJ) observed 1300 UTC 25 April 2019
Temperature: 26.0°C (79°F)
Dewpoint: 25.0°C (77°F) [RH = 94%]
Pressure (altimeter): 29.79 inches Hg (1009.0 mb)
Winds: from the ESE (120 degrees) at 5 MPH (4 knots; 2.1 m/s)
Visibility: 6 or more miles (10+ km)
Ceiling: 4800 feet AGL
Clouds: scattered clouds at 1700 feet AGL
broken clouds at 4800 feet AGL
broken clouds at 11000 feet AGL
Weather: no significant weather observed at this time

METAR text: NFNA 251200Z 15004KT 9999 -SHRA FEW009 SCT018 BKN048 26/25 Q1009
Conditions at: NFNA (NAUSORI FIJI , FJ) observed 1200 UTC 25 April 2019
Temperature: 26.0°C (79°F)
Dewpoint: 25.0°C (77°F) [RH = 94%]
Pressure (altimeter): 29.79 inches Hg (1009.0 mb)
Winds: from the SSE (150 degrees) at 5 MPH (4 knots; 2.1 m/s)
Visibility: 6 or more miles (10+ km)
Ceiling: 4800 feet AGL
Clouds: few clouds at 900 feet AGL
scattered clouds at 1800 feet AGL
broken clouds at 4800 feet AGL
Weather: -SHRA  (light rain showers)

METAR text: NFNA 251100Z 16003KT 9999 SCT018 SCT110 26/25 Q1010
Conditions at: NFNA (NAUSORI FIJI , FJ) observed 1100 UTC 25 April 2019
Temperature: 26.0°C (79°F)
Dewpoint: 25.0°C (77°F) [RH = 94%]
Pressure (altimeter): 29.82 inches Hg (1010.0 mb)
Winds: from the SSE (160 degrees) at 3 MPH (3 knots; 1.5 m/s)
Visibility: 6 or more miles (10+ km)
Ceiling: at least 12,000 feet AGL
Clouds: scattered clouds at 1800 feet AGL
scattered clouds at 11000 feet AGL
Weather: no significant weather observed at this time

METAR text: NFNA 251000Z 16003KT 9999 SCT018 SCT050 BKN110 27/25 Q1010
Conditions at: NFNA (NAUSORI FIJI , FJ) observed 1000 UTC 25 April 2019
Temperature: 27.0°C (81°F)
Dewpoint: 25.0°C (77°F) [RH = 89%]
Pressure (altimeter): 29.82 inches Hg (1010.0 mb)
Winds: from the SSE (160 degrees) at 3 MPH (3 knots; 1.5 m/s)
Visibility: 6 or more miles (10+ km)
Ceiling: 11000 feet AGL
Clouds: scattered clouds at 1800 feet AGL
scattered clouds at 5000 feet AGL
broken clouds at 11000 feet AGL
Weather: no significant weather observed at this time

METAR text: NFNA 250900Z 15004KT 9999 SCT017 SCT050 BKN110 27/25 Q1010
Conditions at: NFNA (NAUSORI FIJI , FJ) observed 0900 UTC 25 April 2019
Temperature: 27.0°C (81°F)
Dewpoint: 25.0°C (77°F) [RH = 89%]
Pressure (altimeter): 29.82 inches Hg (1010.0 mb)
Winds: from the SSE (150 degrees) at 5 MPH (4 knots; 2.1 m/s)
Visibility: 6 or more miles (10+ km)
Ceiling: 11000 feet AGL
Clouds: scattered clouds at 1700 feet AGL
scattered clouds at 5000 feet AGL
broken clouds at 11000 feet AGL
Weather: no significant weather observed at this time

METAR text: NFNA 250800Z 14004KT 9999 SCT017 SCT050 BKN110 27/25 Q1009
Conditions at: NFNA (NAUSORI FIJI , FJ) observed 0800 UTC 25 April 2019
Temperature: 27.0°C (81°F)
Dewpoint: 25.0°C (77°F) [RH = 89%]
Pressure (altimeter): 29.79 inches Hg (1009.0 mb)
Winds: from the SE (140 degrees) at 5 MPH (4 knots; 2.1 m/s)
Visibility: 6 or more miles (10+ km)
Ceiling: 11000 feet AGL
Clouds: scattered clouds at 1700 feet AGL
scattered clouds at 5000 feet AGL
broken clouds at 11000 feet AGL
Weather: no significant weather observed at this time

METAR text: NFNA 250700Z 15004KT 9999 -SHRA SCT016TCU BKN048 BKN100 27/25 Q1009
Conditions at: NFNA (NAUSORI FIJI , FJ) observed 0700 UTC 25 April 2019
Temperature: 27.0°C (81°F)
Dewpoint: 25.0°C (77°F) [RH = 89%]
Pressure (altimeter): 29.79 inches Hg (1009.0 mb)
Winds: from the SSE (150 degrees) at 5 MPH (4 knots; 2.1 m/s)
Visibility: 6 or more miles (10+ km)
Ceiling: 4800 feet AGL
Clouds: scattered clouds at 1600 feet AGL
broken clouds at 4800 feet AGL
broken clouds at 10000 feet AGL
Weather: -SHRA  (light rain showers)

METAR text: NFNA 250600Z 00000KT 9000 -SHRA FEW006 BKN017TCU BKN048 26/26 Q1008
Conditions at: NFNA (NAUSORI FIJI , FJ) observed 0600 UTC 25 April 2019
Temperature: 26.0°C (79°F)
Dewpoint: 26.0°C (79°F) [RH = 100%]
Pressure (altimeter): 29.76 inches Hg (1008.0 mb)
Winds: calm
Visibility: 6 miles ( 9 km)
Ceiling: 1700 feet AGL
Clouds: few clouds at 600 feet AGL
broken clouds at 1700 feet AGL
broken clouds at 4800 feet AGL
Weather: -SHRA  (light rain showers)

METAR text: NFNA 250500Z 00000KT 8000 -SHRA FEW008 BKN018TCU BKN048 26/25 Q1008
Conditions at: NFNA (NAUSORI FIJI , FJ) observed 0500 UTC 25 April 2019
Temperature: 26.0°C (79°F)
Dewpoint: 25.0°C (77°F) [RH = 94%]
Pressure (altimeter): 29.76 inches Hg (1008.0 mb)
Winds: calm
Visibility: 5 miles ( 8 km)
Ceiling: 1800 feet AGL
Clouds: few clouds at 800 feet AGL
broken clouds at 1800 feet AGL
broken clouds at 4800 feet AGL
Weather: -SHRA  (light rain showers)

METAR text: NFNA 250400Z 13003KT 9999 FEW008 BKN018TCU BKN045 27/25 Q1008
Conditions at: NFNA (NAUSORI FIJI , FJ) observed 0400 UTC 25 April 2019
Temperature: 27.0°C (81°F)
Dewpoint: 25.0°C (77°F) [RH = 89%]
Pressure (altimeter): 29.76 inches Hg (1008.0 mb)
Winds: from the SE (130 degrees) at 3 MPH (3 knots; 1.5 m/s)
Visibility: 6 or more miles (10+ km)
Ceiling: 1800 feet AGL
Clouds: few clouds at 800 feet AGL
broken clouds at 1800 feet AGL
broken clouds at 4500 feet AGL
Weather: no significant weather observed at this time

METAR text: NFNA 250300Z 14006KT 9999 -SHRA SCT008 BKN018TCU BKN045 28/25 Q1007
Conditions at: NFNA (NAUSORI FIJI , FJ) observed 0300 UTC 25 April 2019
Temperature: 28.0°C (82°F)
Dewpoint: 25.0°C (77°F) [RH = 84%]
Pressure (altimeter): 29.73 inches Hg (1007.0 mb)
Winds: from the SE (140 degrees) at 7 MPH (6 knots; 3.1 m/s)
Visibility: 6 or more miles (10+ km)
Ceiling: 1800 feet AGL
Clouds: scattered clouds at 800 feet AGL
broken clouds at 1800 feet AGL
broken clouds at 4500 feet AGL
Weather: -SHRA  (light rain showers)

METAR text: NFNA 250200Z 17006KT 9999 SCT007 BKN020TCU BKN045 27/25 Q1008
Conditions at: NFNA (NAUSORI FIJI , FJ) observed 0200 UTC 25 April 2019
Temperature: 27.0°C (81°F)
Dewpoint: 25.0°C (77°F) [RH = 89%]
Pressure (altimeter): 29.76 inches Hg (1008.0 mb)
Winds: from the S (170 degrees) at 7 MPH (6 knots; 3.1 m/s)
Visibility: 6 or more miles (10+ km)
Ceiling: 2000 feet AGL
Clouds: scattered clouds at 700 feet AGL
broken clouds at 2000 feet AGL
broken clouds at 4500 feet AGL
Weather: no significant weather observed at this time

METAR text: NFNA 250100Z 18004KT 9999 -RA FEW007 BKN020TCU BKN045 26/25 Q1008
Conditions at: NFNA (NAUSORI FIJI , FJ) observed 0100 UTC 25 April 2019
Temperature: 26.0°C (79°F)
Dewpoint: 25.0°C (77°F) [RH = 94%]
Pressure (altimeter): 29.76 inches Hg (1008.0 mb)
Winds: from the S (180 degrees) at 5 MPH (4 knots; 2.1 m/s)
Visibility: 6 or more miles (10+ km)
Ceiling: 2000 feet AGL
Clouds: few clouds at 700 feet AGL
broken clouds at 2000 feet AGL
broken clouds at 4500 feet AGL
Weather: -RA  (light rain)

METAR text: NFNA 250000Z 13007KT 9999 4000W -SHRA BKN020TCU BKN045 26/25 Q1009 RESHRA
Conditions at: NFNA (NAUSORI FIJI , FJ) observed 0000 UTC 25 April 2019
Temperature: 26.0°C (79°F)
Dewpoint: 25.0°C (77°F) [RH = 94%]
Pressure (altimeter): 29.79 inches Hg (1009.0 mb)
Winds: from the SE (130 degrees) at 8 MPH (7 knots; 3.6 m/s)
Visibility: 6 or more miles (10+ km)
Ceiling: 2000 feet AGL
Clouds: broken clouds at 2000 feet AGL
broken clouds at 4500 feet AGL
Weather: -SHRA  (light rain showers)

METAR text: NFNA 242335Z 13010KT 5000 SHRA FEW010 BKN018TCU BKN045 26/25 Q1010
Conditions at: NFNA (NAUSORI FIJI , FJ) observed 2335 UTC 24 April 2019
Temperature: 26.0°C (79°F)
Dewpoint: 25.0°C (77°F) [RH = 94%]
Pressure (altimeter): 29.82 inches Hg (1010.0 mb)
Winds: from the SE (130 degrees) at 12 MPH (10 knots; 5.1 m/s)
Visibility: 3 miles ( 5 km)
Ceiling: 1800 feet AGL
Clouds: few clouds at 1000 feet AGL
broken clouds at 1800 feet AGL
broken clouds at 4500 feet AGL
Weather: SHRA  (rain showers)

METAR text: NFNA 242310Z 14008KT 7000 SHRA FEW010 SCT018TCU BKN045 27/25 Q1010
Conditions at: NFNA (NAUSORI FIJI , FJ) observed 2310 UTC 24 April 2019
Temperature: 27.0°C (81°F)
Dewpoint: 25.0°C (77°F) [RH = 89%]
Pressure (altimeter): 29.82 inches Hg (1010.0 mb)
Winds: from the SE (140 degrees) at 9 MPH (8 knots; 4.1 m/s)
Visibility: 4 miles ( 7 km)
Ceiling: 4500 feet AGL
Clouds: few clouds at 1000 feet AGL
scattered clouds at 1800 feet AGL
broken clouds at 4500 feet AGL
Weather: SHRA  (rain showers)

METAR text: NFNA 242300Z 13009KT 9999 FEW010 SCT020 BKN300 29/25 Q1010
Conditions at: NFNA (NAUSORI FIJI , FJ) observed 2300 UTC 24 April 2019
Temperature: 29.0°C (84°F)
Dewpoint: 25.0°C (77°F) [RH = 79%]
Pressure (altimeter): 29.82 inches Hg (1010.0 mb)
Winds: from the SE (130 degrees) at 10 MPH (9 knots; 4.6 m/s)
Visibility: 6 or more miles (10+ km)
Ceiling: 30000 feet AGL
Clouds: few clouds at 1000 feet AGL
scattered clouds at 2000 feet AGL
broken clouds at 30000 feet AGL
Weather: no significant weather observed at this time

METAR text: NFNA 242200Z 13006KT 9999 SCT020 SCT045 28/24 Q1010
Conditions at: NFNA (NAUSORI FIJI , FJ) observed 2200 UTC 24 April 2019
Temperature: 28.0°C (82°F)
Dewpoint: 24.0°C (75°F) [RH = 79%]
Pressure (altimeter): 29.82 inches Hg (1010.0 mb)
Winds: from the SE (130 degrees) at 7 MPH (6 knots; 3.1 m/s)
Visibility: 6 or more miles (10+ km)
Ceiling: at least 12,000 feet AGL
Clouds: scattered clouds at 2000 feet AGL
scattered clouds at 4500 feet AGL
Weather: no significant weather observed at this time

METAR text: NFNA 242100Z 12008KT 9999 -SHRA SCT020 BKN045 26/25 Q1010
Conditions at: NFNA (NAUSORI FIJI , FJ) observed 2100 UTC 24 April 2019
Temperature: 26.0°C (79°F)
Dewpoint: 25.0°C (77°F) [RH = 94%]
Pressure (altimeter): 29.82 inches Hg (1010.0 mb)
Winds: from the ESE (120 degrees) at 9 MPH (8 knots; 4.1 m/s)
Visibility: 6 or more miles (10+ km)
Ceiling: 4500 feet AGL
Clouds: scattered clouds at 2000 feet AGL
broken clouds at 4500 feet AGL
Weather: -SHRA  (light rain showers)

METAR text: NFNA 242000Z 16005KT 9999 SCT020 BKN045 28/25 Q1010
Conditions at: NFNA (NAUSORI FIJI , FJ) observed 2000 UTC 24 April 2019
Temperature: 28.0°C (82°F)
Dewpoint: 25.0°C (77°F) [RH = 84%]
Pressure (altimeter): 29.82 inches Hg (1010.0 mb)
Winds: from the SSE (160 degrees) at 6 MPH (5 knots; 2.6 m/s)
Visibility: 6 or more miles (10+ km)
Ceiling: 4500 feet AGL
Clouds: scattered clouds at 2000 feet AGL
broken clouds at 4500 feet AGL
Weather: no significant weather observed at this time

METAR text: NFNA 241900Z 21002KT 9999 SCT020 BKN045 26/25 Q1010
Conditions at: NFNA (NAUSORI FIJI , FJ) observed 1900 UTC 24 April 2019
Temperature: 26.0°C (79°F)
Dewpoint: 25.0°C (77°F) [RH = 94%]
Pressure (altimeter): 29.82 inches Hg (1010.0 mb)
Winds: from the SSW (210 degrees) at 2 MPH (2 knots; 1.0 m/s)
Visibility: 6 or more miles (10+ km)
Ceiling: 4500 feet AGL
Clouds: scattered clouds at 2000 feet AGL
broken clouds at 4500 feet AGL
Weather: no significant weather observed at this time

METAR text: NFNA 241800Z 17003KT 9999 SCT020 BKN045 26/25 Q1009
Conditions at: NFNA (NAUSORI FIJI , FJ) observed 1800 UTC 24 April 2019
Temperature: 26.0°C (79°F)
Dewpoint: 25.0°C (77°F) [RH = 94%]
Pressure (altimeter): 29.79 inches Hg (1009.0 mb)
Winds: from the S (170 degrees) at 3 MPH (3 knots; 1.5 m/s)
Visibility: 6 or more miles (10+ km)
Ceiling: 4500 feet AGL
Clouds: scattered clouds at 2000 feet AGL
broken clouds at 4500 feet AGL
Weather: no significant weather observed at this time

METAR text: NFNA 241700Z 18003KT 9999 SCT020 BKN045 26/25 Q1009
Conditions at: NFNA (NAUSORI FIJI , FJ) observed 1700 UTC 24 April 2019
Temperature: 26.0°C (79°F)
Dewpoint: 25.0°C (77°F) [RH = 94%]
Pressure (altimeter): 29.79 inches Hg (1009.0 mb)
Winds: from the S (180 degrees) at 3 MPH (3 knots; 1.5 m/s)
Visibility: 6 or more miles (10+ km)
Ceiling: 4500 feet AGL
Clouds: scattered clouds at 2000 feet AGL
broken clouds at 4500 feet AGL
Weather: no significant weather observed at this time

METAR text: NFNA 241600Z 17004KT 9999 SCT020 BKN045 26/25 Q1009
Conditions at: NFNA (NAUSORI FIJI , FJ) observed 1600 UTC 24 April 2019
Temperature: 26.0°C (79°F)
Dewpoint: 25.0°C (77°F) [RH = 94%]
Pressure (altimeter): 29.79 inches Hg (1009.0 mb)
Winds: from the S (170 degrees) at 5 MPH (4 knots; 2.1 m/s)
Visibility: 6 or more miles (10+ km)
Ceiling: 4500 feet AGL
Clouds: scattered clouds at 2000 feet AGL
broken clouds at 4500 feet AGL
Weather: no significant weather observed at this time

Forecast for: NFNA (NAUSORI FIJI , FJ)
Text: TAF NFNA 252319Z 2600/2624 12006KT 9999 -SHRA BKN018 BKN045
Forecast period: 0000 UTC 26 April 2019 to 0000 UTC 27 April 2019
Forecast type: FROM: standard forecast or significant change
Winds: from the ESE (120 degrees) at 7 MPH (6 knots; 3.1 m/s)
Visibility: 6 or more miles 10+ km)
Ceiling: 1800 feet AGL
Clouds: broken clouds at 1800 feet AGL
broken clouds at 4500 feet AGL
Weather: -SHRA  (light rain showers)
Text: TEMPO 2600/2606 5000 SHRA BKN015
Forecast period: 0000 to 0600 UTC 26 April 2019
Forecast type: TEMPORARY: The following changes expected for less than half the time period
Visibility: 3 miles (5 km)
Ceiling: 1500 feet AGL
Clouds: broken clouds at 1500 feet AGL
Weather: SHRA  (rain showers)
Text: PROB40
Forecast period: 1800 UTC 26 April 2019 to 0000 UTC 27 April 2019
Forecast type: TEMPORARY: The following changes expected for less than half the time period
Visibility: 3 miles (5 km)
Ceiling: 1500 feet AGL
Clouds: broken clouds at 1500 feet AGL
Weather: SHRA  (rain showers)